sensor_id;sensor_type;location;lat;lon;timestamp;P1;durP1;ratioP1;P2;durP2;ratioP2
25936;SDS011;13733;51.178;4.450;2023-02-12T00:01:38;28.85;;;19.88;;
25936;SDS011;13733;51.178;4.450;2023-02-12T00:04:03;29.55;;;21.00;;
25936;SDS011;13733;51.178;4.450;2023-02-12T00:06:29;28.95;;;21.08;;
25936;SDS011;13733;51.178;4.450;2023-02-12T00:08:55;36.55;;;22.40;;
25936;SDS011;13733;51.178;4.450;2023-02-12T00:11:26;31.63;;;22.05;;
25936;SDS011;13733;51.178;4.450;2023-02-12T00:13:53;36.00;;;23.13;;
25936;SDS011;13733;51.178;4.450;2023-02-12T00:16:20;31.17;;;22.17;;
25936;SDS011;13733;51.178;4.450;2023-02-12T00:18:49;31.52;;;20.63;;
25936;SDS011;13733;51.178;4.450;2023-02-12T00:21:16;28.55;;;21.50;;
25936;SDS011;13733;51.178;4.450;2023-02-12T00:23:42;29.60;;;20.30;;
25936;SDS011;13733;51.178;4.450;2023-02-12T00:26:11;30.60;;;20.88;;
25936;SDS011;13733;51.178;4.450;2023-02-12T00:28:44;31.55;;;20.60;;
25936;SDS011;13733;51.178;4.450;2023-02-12T00:31:12;26.67;;;20.35;;
25936;SDS011;13733;51.178;4.450;2023-02-12T00:33:42;33.42;;;21.23;;
25936;SDS011;13733;51.178;4.450;2023-02-12T00:36:08;34.60;;;22.30;;
25936;SDS011;13733;51.178;4.450;2023-02-12T00:38:39;29.95;;;20.20;;
25936;SDS011;13733;51.178;4.450;2023-02-12T00:41:05;26.98;;;19.67;;
25936;SDS011;13733;51.178;4.450;2023-02-12T00:43:30;32.97;;;21.10;;
25936;SDS011;13733;51.178;4.450;2023-02-12T00:45:56;33.45;;;21.73;;
25936;SDS011;13733;51.178;4.450;2023-02-12T00:48:22;28.38;;;19.35;;
25936;SDS011;13733;51.178;4.450;2023-02-12T00:50:48;27.73;;;20.08;;
25936;SDS011;13733;51.178;4.450;2023-02-12T00:53:14;27.70;;;19.90;;
25936;SDS011;13733;51.178;4.450;2023-02-12T00:55:40;26.20;;;18.02;;
25936;SDS011;13733;51.178;4.450;2023-02-12T00:58:06;21.23;;;16.67;;
25936;SDS011;13733;51.178;4.450;2023-02-12T01:00:31;21.65;;;15.82;;
25936;SDS011;13733;51.178;4.450;2023-02-12T01:02:57;22.05;;;15.60;;
25936;SDS011;13733;51.178;4.450;2023-02-12T01:05:23;21.80;;;16.40;;
25936;SDS011;13733;51.178;4.450;2023-02-12T01:07:51;22.90;;;15.13;;
25936;SDS011;13733;51.178;4.450;2023-02-12T01:10:18;19.75;;;14.30;;
25936;SDS011;13733;51.178;4.450;2023-02-12T01:12:45;20.98;;;15.48;;
25936;SDS011;13733;51.178;4.450;2023-02-12T01:15:12;19.75;;;15.10;;
25936;SDS011;13733;51.178;4.450;2023-02-12T01:17:38;19.67;;;15.07;;
25936;SDS011;13733;51.178;4.450;2023-02-12T01:20:04;20.73;;;15.60;;
25936;SDS011;13733;51.178;4.450;2023-02-12T01:22:35;21.35;;;15.75;;
25936;SDS011;13733;51.178;4.450;2023-02-12T01:25:05;20.55;;;15.95;;
25936;SDS011;13733;51.178;4.450;2023-02-12T01:27:31;22.58;;;15.10;;
25936;SDS011;13733;51.178;4.450;2023-02-12T01:29:57;19.17;;;13.75;;
25936;SDS011;13733;51.178;4.450;2023-02-12T01:32:23;19.67;;;15.02;;
25936;SDS011;13733;51.178;4.450;2023-02-12T01:34:49;21.63;;;14.02;;
25936;SDS011;13733;51.178;4.450;2023-02-12T01:37:15;21.02;;;15.32;;
25936;SDS011;13733;51.178;4.450;2023-02-12T01:39:41;18.92;;;13.13;;
25936;SDS011;13733;51.178;4.450;2023-02-12T01:42:09;17.80;;;13.07;;
25936;SDS011;13733;51.178;4.450;2023-02-12T01:47:11;15.63;;;12.98;;
25936;SDS011;13733;51.178;4.450;2023-02-12T01:49:43;18.30;;;13.15;;
25936;SDS011;13733;51.178;4.450;2023-02-12T01:54:45;22.67;;;15.23;;
25936;SDS011;13733;51.178;4.450;2023-02-12T01:57:12;17.90;;;14.60;;
25936;SDS011;13733;51.178;4.450;2023-02-12T01:59:39;18.10;;;14.25;;
25936;SDS011;13733;51.178;4.450;2023-02-12T02:02:09;16.83;;;12.90;;
25936;SDS011;13733;51.178;4.450;2023-02-12T02:04:39;15.57;;;12.32;;
25936;SDS011;13733;51.178;4.450;2023-02-12T02:07:09;14.50;;;12.13;;
25936;SDS011;13733;51.178;4.450;2023-02-12T02:09:36;16.33;;;12.98;;
25936;SDS011;13733;51.178;4.450;2023-02-12T02:12:03;18.30;;;13.10;;
25936;SDS011;13733;51.178;4.450;2023-02-12T02:14:49;18.20;;;12.85;;
25936;SDS011;13733;51.178;4.450;2023-02-12T02:17:33;16.25;;;12.40;;
25936;SDS011;13733;51.178;4.450;2023-02-12T02:28:32;17.70;;;13.00;;
25936;SDS011;13733;51.178;4.450;2023-02-12T02:39:37;16.10;;;12.15;;
25936;SDS011;13733;51.178;4.450;2023-02-12T02:42:15;15.38;;;11.77;;
25936;SDS011;13733;51.178;4.450;2023-02-12T02:44:50;18.92;;;12.40;;
25936;SDS011;13733;51.178;4.450;2023-02-12T02:47:19;16.40;;;12.38;;
25936;SDS011;13733;51.178;4.450;2023-02-12T02:49:49;14.07;;;12.02;;
25936;SDS011;13733;51.178;4.450;2023-02-12T02:52:21;17.98;;;12.65;;
25936;SDS011;13733;51.178;4.450;2023-02-12T02:54:57;15.75;;;11.15;;
25936;SDS011;13733;51.178;4.450;2023-02-12T02:57:35;13.50;;;11.77;;
25936;SDS011;13733;51.178;4.450;2023-02-12T03:00:17;19.30;;;12.27;;
25936;SDS011;13733;51.178;4.450;2023-02-12T03:05:29;15.30;;;11.45;;
25936;SDS011;13733;51.178;4.450;2023-02-12T03:08:07;15.20;;;11.20;;
25936;SDS011;13733;51.178;4.450;2023-02-12T03:10:44;15.43;;;10.73;;
25936;SDS011;13733;51.178;4.450;2023-02-12T03:18:45;12.32;;;9.80;;
25936;SDS011;13733;51.178;4.450;2023-02-12T03:24:31;9.20;;;8.20;;
25936;SDS011;13733;51.178;4.450;2023-02-12T03:27:20;8.80;;;7.30;;
25936;SDS011;13733;51.178;4.450;2023-02-12T03:29:53;10.50;;;7.90;;
25936;SDS011;13733;51.178;4.450;2023-02-12T03:37:54;9.95;;;7.80;;
25936;SDS011;13733;51.178;4.450;2023-02-12T03:45:53;10.50;;;8.43;;
25936;SDS011;13733;51.178;4.450;2023-02-12T03:50:55;10.52;;;7.90;;
25936;SDS011;13733;51.178;4.450;2023-02-12T03:53:34;11.63;;;8.57;;
25936;SDS011;13733;51.178;4.450;2023-02-12T03:56:04;10.57;;;8.73;;
25936;SDS011;13733;51.178;4.450;2023-02-12T03:58:37;11.23;;;9.00;;
25936;SDS011;13733;51.178;4.450;2023-02-12T04:01:05;10.65;;;8.20;;
25936;SDS011;13733;51.178;4.450;2023-02-12T04:03:31;11.38;;;8.95;;
25936;SDS011;13733;51.178;4.450;2023-02-12T04:05:58;13.65;;;9.23;;
25936;SDS011;13733;51.178;4.450;2023-02-12T04:08:23;14.13;;;9.63;;
25936;SDS011;13733;51.178;4.450;2023-02-12T04:11:05;11.98;;;8.95;;
25936;SDS011;13733;51.178;4.450;2023-02-12T04:13:41;12.52;;;9.32;;
25936;SDS011;13733;51.178;4.450;2023-02-12T04:18:49;11.05;;;8.80;;
25936;SDS011;13733;51.178;4.450;2023-02-12T04:26:48;12.73;;;9.38;;
25936;SDS011;13733;51.178;4.450;2023-02-12T04:29:38;15.60;;;10.82;;
25936;SDS011;13733;51.178;4.450;2023-02-12T04:32:19;13.65;;;9.77;;
25936;SDS011;13733;51.178;4.450;2023-02-12T04:35:02;11.18;;;9.50;;
25936;SDS011;13733;51.178;4.450;2023-02-12T04:37:49;11.35;;;9.52;;
25936;SDS011;13733;51.178;4.450;2023-02-12T04:40:19;11.20;;;10.00;;
25936;SDS011;13733;51.178;4.450;2023-02-12T04:42:47;12.07;;;9.50;;
25936;SDS011;13733;51.178;4.450;2023-02-12T04:45:17;13.90;;;9.38;;
25936;SDS011;13733;51.178;4.450;2023-02-12T04:47:49;11.35;;;8.93;;
25936;SDS011;13733;51.178;4.450;2023-02-12T04:50:15;11.70;;;9.30;;
25936;SDS011;13733;51.178;4.450;2023-02-12T04:52:41;11.32;;;9.30;;
25936;SDS011;13733;51.178;4.450;2023-02-12T04:55:07;12.52;;;9.55;;
25936;SDS011;13733;51.178;4.450;2023-02-12T04:57:33;12.48;;;9.73;;
25936;SDS011;13733;51.178;4.450;2023-02-12T04:59:58;13.70;;;9.43;;
25936;SDS011;13733;51.178;4.450;2023-02-12T05:02:24;13.15;;;9.45;;
25936;SDS011;13733;51.178;4.450;2023-02-12T05:04:50;11.68;;;9.45;;
25936;SDS011;13733;51.178;4.450;2023-02-12T05:07:15;10.88;;;9.63;;
25936;SDS011;13733;51.178;4.450;2023-02-12T05:09:41;10.93;;;9.65;;
25936;SDS011;13733;51.178;4.450;2023-02-12T05:12:07;15.48;;;10.55;;
25936;SDS011;13733;51.178;4.450;2023-02-12T05:14:33;13.60;;;10.35;;
25936;SDS011;13733;51.178;4.450;2023-02-12T05:16:58;15.68;;;10.50;;
25936;SDS011;13733;51.178;4.450;2023-02-12T05:19:24;11.57;;;9.73;;
25936;SDS011;13733;51.178;4.450;2023-02-12T05:21:50;12.00;;;10.02;;
25936;SDS011;13733;51.178;4.450;2023-02-12T05:24:16;12.25;;;9.50;;
25936;SDS011;13733;51.178;4.450;2023-02-12T05:26:42;10.88;;;9.25;;
25936;SDS011;13733;51.178;4.450;2023-02-12T05:29:07;11.43;;;9.95;;
25936;SDS011;13733;51.178;4.450;2023-02-12T05:31:33;12.95;;;10.50;;
25936;SDS011;13733;51.178;4.450;2023-02-12T05:33:59;12.27;;;10.68;;
25936;SDS011;13733;51.178;4.450;2023-02-12T05:36:24;14.38;;;11.02;;
25936;SDS011;13733;51.178;4.450;2023-02-12T05:38:51;14.15;;;10.50;;
25936;SDS011;13733;51.178;4.450;2023-02-12T05:41:19;14.60;;;10.63;;
25936;SDS011;13733;51.178;4.450;2023-02-12T05:43:46;13.48;;;11.07;;
25936;SDS011;13733;51.178;4.450;2023-02-12T05:46:12;14.73;;;11.20;;
25936;SDS011;13733;51.178;4.450;2023-02-12T05:48:38;15.73;;;11.65;;
25936;SDS011;13733;51.178;4.450;2023-02-12T05:51:08;13.00;;;10.65;;
25936;SDS011;13733;51.178;4.450;2023-02-12T05:53:36;15.93;;;10.80;;
25936;SDS011;13733;51.178;4.450;2023-02-12T05:56:07;12.48;;;10.32;;
25936;SDS011;13733;51.178;4.450;2023-02-12T05:58:34;12.07;;;10.07;;
25936;SDS011;13733;51.178;4.450;2023-02-12T06:00:59;12.77;;;10.90;;
25936;SDS011;13733;51.178;4.450;2023-02-12T06:03:25;13.65;;;11.10;;
25936;SDS011;13733;51.178;4.450;2023-02-12T06:05:51;14.95;;;11.40;;
25936;SDS011;13733;51.178;4.450;2023-02-12T06:08:17;12.25;;;10.80;;
25936;SDS011;13733;51.178;4.450;2023-02-12T06:10:43;12.38;;;11.07;;
25936;SDS011;13733;51.178;4.450;2023-02-12T06:13:09;14.10;;;11.50;;
25936;SDS011;13733;51.178;4.450;2023-02-12T06:15:35;14.30;;;10.77;;
25936;SDS011;13733;51.178;4.450;2023-02-12T06:18:01;13.27;;;11.20;;
25936;SDS011;13733;51.178;4.450;2023-02-12T06:20:27;13.38;;;10.88;;
25936;SDS011;13733;51.178;4.450;2023-02-12T06:22:53;13.40;;;11.40;;
25936;SDS011;13733;51.178;4.450;2023-02-12T06:25:18;13.50;;;11.00;;
25936;SDS011;13733;51.178;4.450;2023-02-12T06:27:44;15.18;;;11.85;;
25936;SDS011;13733;51.178;4.450;2023-02-12T06:30:10;14.23;;;10.73;;
25936;SDS011;13733;51.178;4.450;2023-02-12T06:32:36;15.48;;;11.10;;
25936;SDS011;13733;51.178;4.450;2023-02-12T06:35:02;12.02;;;10.50;;
25936;SDS011;13733;51.178;4.450;2023-02-12T06:37:28;11.82;;;10.60;;
25936;SDS011;13733;51.178;4.450;2023-02-12T06:39:54;12.73;;;10.70;;
25936;SDS011;13733;51.178;4.450;2023-02-12T06:42:19;14.95;;;11.43;;
25936;SDS011;13733;51.178;4.450;2023-02-12T06:44:45;14.98;;;10.57;;
25936;SDS011;13733;51.178;4.450;2023-02-12T06:47:11;13.05;;;10.55;;
25936;SDS011;13733;51.178;4.450;2023-02-12T06:49:38;18.60;;;10.85;;
25936;SDS011;13733;51.178;4.450;2023-02-12T06:52:03;14.13;;;10.68;;
25936;SDS011;13733;51.178;4.450;2023-02-12T06:54:29;15.18;;;11.35;;
25936;SDS011;13733;51.178;4.450;2023-02-12T06:56:55;16.15;;;11.90;;
25936;SDS011;13733;51.178;4.450;2023-02-12T06:59:20;17.58;;;11.80;;
25936;SDS011;13733;51.178;4.450;2023-02-12T07:01:46;11.25;;;10.00;;
25936;SDS011;13733;51.178;4.450;2023-02-12T07:04:12;14.82;;;10.57;;
25936;SDS011;13733;51.178;4.450;2023-02-12T07:06:38;13.68;;;10.90;;
25936;SDS011;13733;51.178;4.450;2023-02-12T07:09:04;12.25;;;10.65;;
25936;SDS011;13733;51.178;4.450;2023-02-12T07:11:31;11.60;;;10.20;;
25936;SDS011;13733;51.178;4.450;2023-02-12T07:13:58;12.27;;;10.45;;
25936;SDS011;13733;51.178;4.450;2023-02-12T07:16:24;12.93;;;10.05;;
25936;SDS011;13733;51.178;4.450;2023-02-12T07:18:50;15.20;;;10.57;;
25936;SDS011;13733;51.178;4.450;2023-02-12T07:21:16;13.63;;;10.48;;
25936;SDS011;13733;51.178;4.450;2023-02-12T07:23:46;12.68;;;9.63;;
25936;SDS011;13733;51.178;4.450;2023-02-12T07:26:13;11.40;;;9.57;;
25936;SDS011;13733;51.178;4.450;2023-02-12T07:28:40;11.60;;;10.00;;
25936;SDS011;13733;51.178;4.450;2023-02-12T07:31:10;12.38;;;10.00;;
25936;SDS011;13733;51.178;4.450;2023-02-12T07:36:02;14.23;;;9.57;;
25936;SDS011;13733;51.178;4.450;2023-02-12T07:38:30;15.02;;;10.52;;
25936;SDS011;13733;51.178;4.450;2023-02-12T07:41:04;12.98;;;9.88;;
25936;SDS011;13733;51.178;4.450;2023-02-12T07:43:31;13.73;;;9.82;;
25936;SDS011;13733;51.178;4.450;2023-02-12T07:46:04;11.60;;;8.93;;
25936;SDS011;13733;51.178;4.450;2023-02-12T07:48:31;12.43;;;9.15;;
25936;SDS011;13733;51.178;4.450;2023-02-12T07:50:56;12.13;;;9.32;;
25936;SDS011;13733;51.178;4.450;2023-02-12T07:53:28;12.77;;;9.25;;
25936;SDS011;13733;51.178;4.450;2023-02-12T07:55:54;10.25;;;8.82;;
25936;SDS011;13733;51.178;4.450;2023-02-12T07:58:19;11.75;;;9.73;;
25936;SDS011;13733;51.178;4.450;2023-02-12T08:00:45;10.70;;;8.55;;
25936;SDS011;13733;51.178;4.450;2023-02-12T08:03:11;13.10;;;9.50;;
25936;SDS011;13733;51.178;4.450;2023-02-12T08:05:36;12.80;;;9.68;;
25936;SDS011;13733;51.178;4.450;2023-02-12T08:08:02;11.27;;;8.63;;
25936;SDS011;13733;51.178;4.450;2023-02-12T08:10:28;11.55;;;9.13;;
25936;SDS011;13733;51.178;4.450;2023-02-12T08:12:53;11.48;;;9.40;;
25936;SDS011;13733;51.178;4.450;2023-02-12T08:15:19;20.02;;;9.82;;
25936;SDS011;13733;51.178;4.450;2023-02-12T08:17:46;12.60;;;9.20;;
25936;SDS011;13733;51.178;4.450;2023-02-12T08:20:12;14.20;;;9.20;;
25936;SDS011;13733;51.178;4.450;2023-02-12T08:22:37;10.93;;;9.25;;
25936;SDS011;13733;51.178;4.450;2023-02-12T08:25:03;11.20;;;9.45;;
25936;SDS011;13733;51.178;4.450;2023-02-12T08:27:29;11.20;;;9.38;;
25936;SDS011;13733;51.178;4.450;2023-02-12T08:29:55;13.70;;;9.35;;
25936;SDS011;13733;51.178;4.450;2023-02-12T08:32:21;13.73;;;9.23;;
25936;SDS011;13733;51.178;4.450;2023-02-12T08:34:46;14.15;;;10.13;;
25936;SDS011;13733;51.178;4.450;2023-02-12T08:37:12;17.35;;;10.98;;
25936;SDS011;13733;51.178;4.450;2023-02-12T08:39:38;14.38;;;10.00;;
25936;SDS011;13733;51.178;4.450;2023-02-12T08:42:04;14.75;;;11.02;;
25936;SDS011;13733;51.178;4.450;2023-02-12T08:44:30;13.38;;;10.30;;
25936;SDS011;13733;51.178;4.450;2023-02-12T08:46:56;12.70;;;10.02;;
25936;SDS011;13733;51.178;4.450;2023-02-12T08:49:23;11.80;;;10.32;;
25936;SDS011;13733;51.178;4.450;2023-02-12T08:51:53;14.85;;;10.70;;
25936;SDS011;13733;51.178;4.450;2023-02-12T08:54:21;13.07;;;10.50;;
25936;SDS011;13733;51.178;4.450;2023-02-12T08:56:48;11.05;;;9.88;;
25936;SDS011;13733;51.178;4.450;2023-02-12T08:59:15;13.02;;;10.63;;
25936;SDS011;13733;51.178;4.450;2023-02-12T09:01:41;13.73;;;11.93;;
25936;SDS011;13733;51.178;4.450;2023-02-12T09:04:15;14.93;;;11.75;;
25936;SDS011;13733;51.178;4.450;2023-02-12T09:06:44;13.82;;;12.02;;
25936;SDS011;13733;51.178;4.450;2023-02-12T09:09:10;16.75;;;11.63;;
25936;SDS011;13733;51.178;4.450;2023-02-12T09:11:36;13.77;;;11.00;;
25936;SDS011;13733;51.178;4.450;2023-02-12T09:14:04;15.07;;;11.35;;
25936;SDS011;13733;51.178;4.450;2023-02-12T09:16:31;13.68;;;11.32;;
25936;SDS011;13733;51.178;4.450;2023-02-12T09:18:57;13.18;;;11.13;;
25936;SDS011;13733;51.178;4.450;2023-02-12T09:21:23;14.35;;;10.95;;
25936;SDS011;13733;51.178;4.450;2023-02-12T09:23:49;14.52;;;10.43;;
25936;SDS011;13733;51.178;4.450;2023-02-12T09:26:17;15.18;;;10.27;;
25936;SDS011;13733;51.178;4.450;2023-02-12T09:28:47;11.60;;;10.15;;
25936;SDS011;13733;51.178;4.450;2023-02-12T09:31:15;14.60;;;11.18;;
25936;SDS011;13733;51.178;4.450;2023-02-12T09:33:44;14.43;;;11.63;;
25936;SDS011;13733;51.178;4.450;2023-02-12T09:36:13;14.73;;;11.50;;
25936;SDS011;13733;51.178;4.450;2023-02-12T09:38:40;17.23;;;12.32;;
25936;SDS011;13733;51.178;4.450;2023-02-12T09:48:59;15.75;;;12.77;;
25936;SDS011;13733;51.178;4.450;2023-02-12T09:51:37;14.95;;;11.52;;
25936;SDS011;13733;51.178;4.450;2023-02-12T09:54:16;15.57;;;12.82;;
25936;SDS011;13733;51.178;4.450;2023-02-12T09:57:10;15.95;;;13.75;;
25936;SDS011;13733;51.178;4.450;2023-02-12T09:59:40;15.90;;;11.93;;
25936;SDS011;13733;51.178;4.450;2023-02-12T10:02:18;15.75;;;12.10;;
25936;SDS011;13733;51.178;4.450;2023-02-12T10:09:57;14.65;;;12.05;;
25936;SDS011;13733;51.178;4.450;2023-02-12T10:12:47;17.85;;;12.32;;
25936;SDS011;13733;51.178;4.450;2023-02-12T10:26:03;17.33;;;13.27;;
25936;SDS011;13733;51.178;4.450;2023-02-12T10:28:40;16.17;;;13.10;;
25936;SDS011;13733;51.178;4.450;2023-02-12T10:33:56;16.85;;;12.07;;
25936;SDS011;13733;51.178;4.450;2023-02-12T10:36:42;16.67;;;12.40;;
25936;SDS011;13733;51.178;4.450;2023-02-12T10:41:35;18.73;;;14.80;;
25936;SDS011;13733;51.178;4.450;2023-02-12T10:44:08;18.30;;;12.93;;
25936;SDS011;13733;51.178;4.450;2023-02-12T10:46:35;20.27;;;14.80;;
25936;SDS011;13733;51.178;4.450;2023-02-12T10:49:01;16.98;;;14.73;;
25936;SDS011;13733;51.178;4.450;2023-02-12T10:56:57;18.95;;;13.98;;
25936;SDS011;13733;51.178;4.450;2023-02-12T10:59:23;19.95;;;15.23;;
25936;SDS011;13733;51.178;4.450;2023-02-12T11:01:50;20.58;;;14.00;;
25936;SDS011;13733;51.178;4.450;2023-02-12T11:06:58;17.90;;;14.20;;
25936;SDS011;13733;51.178;4.450;2023-02-12T11:09:44;21.55;;;14.65;;
25936;SDS011;13733;51.178;4.450;2023-02-12T11:12:19;15.82;;;13.82;;
25936;SDS011;13733;51.178;4.450;2023-02-12T11:14:51;20.48;;;14.73;;
25936;SDS011;13733;51.178;4.450;2023-02-12T11:17:27;22.13;;;15.38;;
25936;SDS011;13733;51.178;4.450;2023-02-12T11:20:07;17.02;;;14.15;;
25936;SDS011;13733;51.178;4.450;2023-02-12T11:22:49;19.40;;;14.48;;
25936;SDS011;13733;51.178;4.450;2023-02-12T11:25:20;18.98;;;15.88;;
25936;SDS011;13733;51.178;4.450;2023-02-12T11:28:13;18.45;;;14.73;;
25936;SDS011;13733;51.178;4.450;2023-02-12T11:33:27;19.25;;;14.93;;
25936;SDS011;13733;51.178;4.450;2023-02-12T11:36:00;22.48;;;16.30;;
25936;SDS011;13733;51.178;4.450;2023-02-12T11:38:32;24.52;;;16.63;;
25936;SDS011;13733;51.178;4.450;2023-02-12T11:41:07;23.60;;;15.77;;
25936;SDS011;13733;51.178;4.450;2023-02-12T11:43:47;21.48;;;15.88;;
25936;SDS011;13733;51.178;4.450;2023-02-12T11:46:20;21.08;;;16.10;;
25936;SDS011;13733;51.178;4.450;2023-02-12T11:48:51;19.80;;;15.27;;
25936;SDS011;13733;51.178;4.450;2023-02-12T11:51:19;19.77;;;15.55;;
25936;SDS011;13733;51.178;4.450;2023-02-12T11:53:50;19.08;;;15.32;;
25936;SDS011;13733;51.178;4.450;2023-02-12T11:56:17;18.00;;;14.70;;
25936;SDS011;13733;51.178;4.450;2023-02-12T11:58:45;18.23;;;15.88;;
25936;SDS011;13733;51.178;4.450;2023-02-12T12:01:17;21.23;;;15.88;;
25936;SDS011;13733;51.178;4.450;2023-02-12T12:20:38;21.48;;;16.83;;
25936;SDS011;13733;51.178;4.450;2023-02-12T12:23:20;20.73;;;16.83;;
25936;SDS011;13733;51.178;4.450;2023-02-12T12:26:00;23.33;;;17.88;;
25936;SDS011;13733;51.178;4.450;2023-02-12T12:28:47;22.40;;;16.67;;
25936;SDS011;13733;51.178;4.450;2023-02-12T12:34:15;23.10;;;17.60;;
25936;SDS011;13733;51.178;4.450;2023-02-12T12:54:32;25.67;;;17.40;;
25936;SDS011;13733;51.178;4.450;2023-02-12T13:02:17;23.75;;;17.70;;
25936;SDS011;13733;51.178;4.450;2023-02-12T13:11:07;24.52;;;18.02;;
25936;SDS011;13733;51.178;4.450;2023-02-12T13:14:36;21.75;;;17.45;;
25936;SDS011;13733;51.178;4.450;2023-02-12T13:16:52;23.85;;;17.90;;
25936;SDS011;13733;51.178;4.450;2023-02-12T13:22:39;24.48;;;19.35;;
25936;SDS011;13733;51.178;4.450;2023-02-12T13:28:28;25.35;;;18.13;;
25936;SDS011;13733;51.178;4.450;2023-02-12T13:31:06;24.17;;;18.52;;
25936;SDS011;13733;51.178;4.450;2023-02-12T13:36:12;24.85;;;19.05;;
25936;SDS011;13733;51.178;4.450;2023-02-12T13:38:41;25.85;;;18.65;;
25936;SDS011;13733;51.178;4.450;2023-02-12T13:41:19;29.08;;;19.15;;
25936;SDS011;13733;51.178;4.450;2023-02-12T13:47:28;25.30;;;19.15;;
25936;SDS011;13733;51.178;4.450;2023-02-12T13:50:09;26.00;;;19.25;;
25936;SDS011;13733;51.178;4.450;2023-02-12T14:01:03;26.95;;;19.00;;
25936;SDS011;13733;51.178;4.450;2023-02-12T14:03:36;25.98;;;20.02;;
25936;SDS011;13733;51.178;4.450;2023-02-12T14:06:16;24.48;;;19.05;;
25936;SDS011;13733;51.178;4.450;2023-02-12T14:08:46;25.15;;;19.85;;
25936;SDS011;13733;51.178;4.450;2023-02-12T14:11:19;24.48;;;18.63;;
25936;SDS011;13733;51.178;4.450;2023-02-12T14:13:53;30.25;;;20.52;;
25936;SDS011;13733;51.178;4.450;2023-02-12T14:19:28;27.13;;;18.90;;
25936;SDS011;13733;51.178;4.450;2023-02-12T14:21:58;26.30;;;18.90;;
25936;SDS011;13733;51.178;4.450;2023-02-12T14:27:14;31.38;;;20.42;;
25936;SDS011;13733;51.178;4.450;2023-02-12T14:30:20;27.08;;;19.08;;
25936;SDS011;13733;51.178;4.450;2023-02-12T14:35:32;24.38;;;17.98;;
25936;SDS011;13733;51.178;4.450;2023-02-12T14:37:59;27.02;;;18.00;;
25936;SDS011;13733;51.178;4.450;2023-02-12T14:45:57;24.70;;;17.77;;
25936;SDS011;13733;51.178;4.450;2023-02-12T14:51:16;24.90;;;17.65;;
25936;SDS011;13733;51.178;4.450;2023-02-12T14:53:53;24.33;;;17.63;;
25936;SDS011;13733;51.178;4.450;2023-02-12T14:56:20;25.20;;;17.70;;
25936;SDS011;13733;51.178;4.450;2023-02-12T14:58:48;25.90;;;18.27;;
25936;SDS011;13733;51.178;4.450;2023-02-12T15:01:16;24.58;;;18.48;;
25936;SDS011;13733;51.178;4.450;2023-02-12T15:03:54;25.60;;;18.70;;
25936;SDS011;13733;51.178;4.450;2023-02-12T15:06:22;29.02;;;20.30;;
25936;SDS011;13733;51.178;4.450;2023-02-12T15:09:06;26.73;;;19.02;;
25936;SDS011;13733;51.178;4.450;2023-02-12T15:14:06;28.85;;;20.40;;
25936;SDS011;13733;51.178;4.450;2023-02-12T15:25:36;29.50;;;19.67;;
25936;SDS011;13733;51.178;4.450;2023-02-12T15:28:18;27.70;;;18.95;;
25936;SDS011;13733;51.178;4.450;2023-02-12T15:33:25;23.17;;;17.17;;
25936;SDS011;13733;51.178;4.450;2023-02-12T15:35:53;25.42;;;18.98;;
25936;SDS011;13733;51.178;4.450;2023-02-12T15:38:21;27.15;;;18.75;;
25936;SDS011;13733;51.178;4.450;2023-02-12T15:40:54;26.67;;;18.65;;
25936;SDS011;13733;51.178;4.450;2023-02-12T15:43:24;25.90;;;18.88;;
25936;SDS011;13733;51.178;4.450;2023-02-12T15:45:52;27.90;;;19.48;;
25936;SDS011;13733;51.178;4.450;2023-02-12T15:48:19;27.60;;;20.15;;
25936;SDS011;13733;51.178;4.450;2023-02-12T15:53:15;28.08;;;20.40;;
25936;SDS011;13733;51.178;4.450;2023-02-12T15:55:43;28.17;;;20.15;;
25936;SDS011;13733;51.178;4.450;2023-02-12T15:58:21;26.95;;;19.52;;
25936;SDS011;13733;51.178;4.450;2023-02-12T16:00:47;29.75;;;21.27;;
25936;SDS011;13733;51.178;4.450;2023-02-12T16:03:33;32.15;;;21.75;;
25936;SDS011;13733;51.178;4.450;2023-02-12T16:06:05;29.20;;;20.75;;
25936;SDS011;13733;51.178;4.450;2023-02-12T16:08:38;30.38;;;22.10;;
25936;SDS011;13733;51.178;4.450;2023-02-12T16:11:07;32.35;;;22.90;;
25936;SDS011;13733;51.178;4.450;2023-02-12T16:13:59;30.05;;;21.50;;
25936;SDS011;13733;51.178;4.450;2023-02-12T16:16:29;31.80;;;22.33;;
25936;SDS011;13733;51.178;4.450;2023-02-12T16:19:22;31.17;;;22.42;;
25936;SDS011;13733;51.178;4.450;2023-02-12T16:24:36;35.13;;;23.75;;
25936;SDS011;13733;51.178;4.450;2023-02-12T16:29:44;37.47;;;25.55;;
25936;SDS011;13733;51.178;4.450;2023-02-12T16:32:37;39.72;;;26.50;;
25936;SDS011;13733;51.178;4.450;2023-02-12T16:43:00;36.35;;;26.15;;
25936;SDS011;13733;51.178;4.450;2023-02-12T16:50:37;32.90;;;23.95;;
25936;SDS011;13733;51.178;4.450;2023-02-12T16:56:10;39.60;;;24.75;;
25936;SDS011;13733;51.178;4.450;2023-02-12T16:58:46;38.20;;;25.42;;
25936;SDS011;13733;51.178;4.450;2023-02-12T17:01:16;37.53;;;24.58;;
25936;SDS011;13733;51.178;4.450;2023-02-12T17:03:46;32.13;;;23.77;;
25936;SDS011;13733;51.178;4.450;2023-02-12T17:06:15;31.13;;;23.70;;
25936;SDS011;13733;51.178;4.450;2023-02-12T17:08:43;34.60;;;24.15;;
25936;SDS011;13733;51.178;4.450;2023-02-12T17:11:09;35.55;;;25.15;;
25936;SDS011;13733;51.178;4.450;2023-02-12T17:13:35;34.83;;;25.27;;
25936;SDS011;13733;51.178;4.450;2023-02-12T17:16:01;33.53;;;24.92;;
25936;SDS011;13733;51.178;4.450;2023-02-12T17:18:28;34.58;;;25.08;;
25936;SDS011;13733;51.178;4.450;2023-02-12T17:21:30;36.13;;;24.90;;
25936;SDS011;13733;51.178;4.450;2023-02-12T17:23:51;36.55;;;26.40;;
25936;SDS011;13733;51.178;4.450;2023-02-12T17:26:21;40.95;;;25.88;;
25936;SDS011;13733;51.178;4.450;2023-02-12T17:28:47;34.42;;;25.90;;
25936;SDS011;13733;51.178;4.450;2023-02-12T17:31:13;39.47;;;26.55;;
25936;SDS011;13733;51.178;4.450;2023-02-12T17:33:39;37.25;;;25.75;;
25936;SDS011;13733;51.178;4.450;2023-02-12T17:36:05;34.63;;;25.92;;
25936;SDS011;13733;51.178;4.450;2023-02-12T17:38:31;39.53;;;27.98;;
25936;SDS011;13733;51.178;4.450;2023-02-12T17:40:57;43.83;;;31.20;;
25936;SDS011;13733;51.178;4.450;2023-02-12T17:43:23;40.95;;;29.98;;
25936;SDS011;13733;51.178;4.450;2023-02-12T17:45:48;43.17;;;29.48;;
25936;SDS011;13733;51.178;4.450;2023-02-12T17:48:15;38.85;;;28.63;;
25936;SDS011;13733;51.178;4.450;2023-02-12T17:50:41;39.72;;;27.88;;
25936;SDS011;13733;51.178;4.450;2023-02-12T17:53:08;37.28;;;27.67;;
25936;SDS011;13733;51.178;4.450;2023-02-12T17:55:38;40.88;;;28.65;;
25936;SDS011;13733;51.178;4.450;2023-02-12T17:58:04;40.43;;;27.53;;
25936;SDS011;13733;51.178;4.450;2023-02-12T18:00:30;40.63;;;27.90;;
25936;SDS011;13733;51.178;4.450;2023-02-12T18:02:56;39.50;;;28.33;;
25936;SDS011;13733;51.178;4.450;2023-02-12T18:05:21;42.17;;;29.15;;
25936;SDS011;13733;51.178;4.450;2023-02-12T18:07:47;39.03;;;29.17;;
25936;SDS011;13733;51.178;4.450;2023-02-12T18:10:13;43.80;;;29.35;;
25936;SDS011;13733;51.178;4.450;2023-02-12T18:12:39;44.17;;;30.92;;
25936;SDS011;13733;51.178;4.450;2023-02-12T18:15:05;49.67;;;33.75;;
25936;SDS011;13733;51.178;4.450;2023-02-12T18:17:32;42.95;;;31.98;;
25936;SDS011;13733;51.178;4.450;2023-02-12T18:19:58;47.88;;;32.38;;
25936;SDS011;13733;51.178;4.450;2023-02-12T18:22:24;47.35;;;32.13;;